Gdynia, Poland
Current Conditions -  °F | °C
As of 12:00 AM on Friday 19 Dec 2014 (Local Time) from EPGD Reporting Station
Light Rain Light Rain  
Wind Chill: 41°   Ceiling: 1100
Heat Index: 46°   Visibility: 5mi
Dew Point: 46°   Wind: 12mph
Humidity: 100%   Direction: 240°WSW
Pressure: 29.5"   Gusts: NA
Location:  54.52°N, 18.53°E
Report Text: EPGD 182200Z 24010KT 200V280 8000 -RA FEW009 BKN011 08/08 Q0999
Loading
Personal Weather Stations






























Interactive Weather Map New forecast layout! Learn more

10-Day Weather Forecast

Advertisements
Track Severe Weather on mobile